createdAt,value
2016-07-21T00:01:14.032Z,0
2016-07-21T00:02:37.889Z,0
2016-07-21T00:04:01.481Z,0
2016-07-21T00:05:26.484Z,0
2016-07-21T00:06:52.787Z,0
2016-07-21T00:08:16.667Z,0
2016-07-21T00:09:40.000Z,0
2016-07-21T00:11:06.522Z,0
2016-07-21T00:12:31.530Z,0
2016-07-21T00:13:58.663Z,0
2016-07-21T00:15:21.271Z,0
2016-07-21T00:16:43.329Z,0
2016-07-21T00:18:08.602Z,0
2016-07-21T00:19:34.053Z,0
2016-07-21T00:20:54.832Z,0
2016-07-21T00:22:19.427Z,0
2016-07-21T00:23:43.260Z,0
2016-07-21T00:25:07.967Z,0
2016-07-21T00:26:31.047Z,0
2016-07-21T00:27:56.382Z,0
2016-07-21T00:29:24.420Z,0
2016-07-21T00:30:49.839Z,0
2016-07-21T00:32:17.556Z,0
2016-07-21T00:33:40.157Z,0
2016-07-21T00:35:04.404Z,0
2016-07-21T00:36:33.106Z,0
2016-07-21T00:38:03.940Z,0
2016-07-21T00:39:34.061Z,0
2016-07-21T00:40:00.927Z,0
2016-07-21T00:41:48.125Z,0
2016-07-21T00:43:11.960Z,0
2016-07-21T00:44:33.007Z,0
2016-07-21T00:45:17.212Z,0
2016-07-21T00:46:59.465Z,0
2016-07-21T00:48:25.331Z,0
2016-07-21T00:49:47.302Z,0
2016-07-21T00:51:11.693Z,0
2016-07-21T00:52:35.070Z,0
2016-07-21T00:53:59.696Z,0
2016-07-21T00:55:26.835Z,0
2016-07-21T00:56:52.264Z,0
2016-07-21T00:58:20.315Z,0
2016-07-21T00:59:44.247Z,0
2016-07-21T01:01:07.236Z,0
2016-07-21T01:02:30.813Z,0
2016-07-21T01:03:58.498Z,0
2016-07-21T01:05:22.768Z,0
2016-07-21T01:06:45.457Z,0
2016-07-21T01:08:08.241Z,0
2016-07-21T01:09:31.449Z,0
2016-07-21T01:10:55.960Z,0
2016-07-21T01:12:22.180Z,0
2016-07-21T01:13:51.683Z,0
2016-07-21T01:15:16.075Z,0
2016-07-21T01:16:43.782Z,0
2016-07-21T01:18:06.945Z,0
2016-07-21T01:19:38.307Z,0
2016-07-21T01:21:02.248Z,0
2016-07-21T01:22:23.980Z,0
2016-07-21T01:23:48.638Z,0
2016-07-21T01:25:19.192Z,0
2016-07-21T01:26:42.394Z,0
2016-07-21T01:28:02.280Z,0
2016-07-21T01:29:29.880Z,0
2016-07-21T01:30:53.124Z,0
2016-07-21T01:32:19.515Z,0
2016-07-21T01:33:42.711Z,0
2016-07-21T01:35:03.088Z,0
2016-07-21T01:36:32.895Z,0
2016-07-21T01:37:56.082Z,0
2016-07-21T01:39:20.244Z,0
2016-07-21T01:40:49.117Z,0
2016-07-21T01:42:12.414Z,0
2016-07-21T01:43:35.979Z,0
2016-07-21T01:44:58.035Z,0
2016-07-21T01:46:24.435Z,0
2016-07-21T01:47:47.130Z,0
2016-07-21T01:49:10.371Z,0
2016-07-21T01:50:34.920Z,0
2016-07-21T01:52:01.322Z,0
2016-07-21T01:53:30.786Z,0
2016-07-21T01:54:54.150Z,0
2016-07-21T01:56:16.652Z,0
2016-07-21T01:57:39.570Z,0
2016-07-21T01:59:03.952Z,0
2016-07-21T02:00:24.095Z,0
2016-07-21T02:01:46.448Z,0
2016-07-21T02:03:08.821Z,0
2016-07-21T02:04:35.715Z,0
2016-07-21T02:06:04.679Z,0
2016-07-21T02:07:27.747Z,0
2016-07-21T02:08:51.143Z,0
2016-07-21T02:10:15.576Z,0
2016-07-21T02:11:39.482Z,0
2016-07-21T02:13:07.254Z,0
2016-07-21T02:14:36.002Z,0
2016-07-21T02:16:00.598Z,0
2016-07-21T02:17:23.735Z,0
2016-07-21T02:18:48.166Z,0
2016-07-21T02:20:12.056Z,0
2016-07-21T02:21:38.164Z,0
2016-07-21T02:23:01.190Z,0
2016-07-21T02:24:25.835Z,0
2016-07-21T02:25:51.433Z,0
2016-07-21T02:27:15.322Z,0
2016-07-21T02:28:40.921Z,0
2016-07-21T02:30:07.505Z,0
2016-07-21T02:31:31.059Z,0
2016-07-21T02:32:53.367Z,0
2016-07-21T02:34:18.333Z,0
2016-07-21T02:35:40.724Z,0
2016-07-21T02:37:06.986Z,0
2016-07-21T02:38:27.583Z,0
2016-07-21T02:39:52.217Z,0
2016-07-21T02:41:21.358Z,0
2016-07-21T02:42:50.279Z,0
2016-07-21T02:44:15.152Z,0
2016-07-21T02:45:40.544Z,0
2016-07-21T02:47:06.742Z,0
2016-07-21T02:48:32.427Z,0
2016-07-21T02:49:59.441Z,0
2016-07-21T02:51:23.191Z,4
2016-07-21T02:52:48.699Z,4
2016-07-21T02:54:14.646Z,4
2016-07-21T02:55:38.902Z,0
2016-07-21T02:57:10.700Z,4
2016-07-21T02:58:32.023Z,4
2016-07-21T02:59:55.663Z,8
2016-07-21T03:01:19.019Z,4
2016-07-21T03:02:45.570Z,8
2016-07-21T03:04:13.355Z,8
2016-07-21T03:05:37.026Z,12
2016-07-21T03:07:01.035Z,16
2016-07-21T03:08:23.514Z,16
2016-07-21T03:09:48.450Z,16
2016-07-21T03:11:18.398Z,20
2016-07-21T03:12:42.554Z,28
2016-07-21T03:14:03.032Z,32
2016-07-21T03:15:27.618Z,36
2016-07-21T03:16:52.611Z,44
2016-07-21T03:18:14.862Z,56
2016-07-21T03:19:42.414Z,64
2016-07-21T03:21:05.647Z,76
2016-07-21T03:22:30.337Z,84
2016-07-21T03:23:53.333Z,96
2016-07-21T03:25:18.234Z,112
2016-07-21T03:26:41.293Z,128
2016-07-21T03:28:06.584Z,144
2016-07-21T03:29:28.928Z,164
2016-07-21T03:30:51.410Z,188
2016-07-21T03:32:16.609Z,208
2016-07-21T03:33:41.739Z,232
2016-07-21T03:35:03.358Z,256
2016-07-21T03:36:27.951Z,284
2016-07-21T03:37:53.316Z,312
2016-07-21T03:39:16.110Z,344
2016-07-21T03:40:43.327Z,376
2016-07-21T03:42:09.349Z,416
2016-07-21T03:43:31.231Z,456
2016-07-21T03:44:56.858Z,488
2016-07-21T03:46:19.707Z,524
2016-07-21T03:47:44.091Z,548
2016-07-21T03:49:10.094Z,580
2016-07-21T03:50:32.252Z,612
2016-07-21T03:51:59.496Z,656
2016-07-21T03:53:25.351Z,704
2016-07-21T03:54:48.019Z,772
2016-07-21T03:56:14.214Z,856
2016-07-21T03:57:36.913Z,944
2016-07-21T03:58:57.883Z,1036
2016-07-21T04:00:20.765Z,1136
2016-07-21T04:01:46.600Z,1228
2016-07-21T04:03:09.497Z,1352
2016-07-21T04:04:35.376Z,1488
2016-07-21T04:06:00.213Z,1584
2016-07-21T04:07:22.893Z,1660
2016-07-21T04:08:53.977Z,1752
2016-07-21T04:10:17.510Z,1836
2016-07-21T04:11:38.467Z,1964
2016-07-21T04:13:01.106Z,2148
2016-07-21T04:13:49.482Z,2252
2016-07-21T04:14:35.788Z,2328
2016-07-21T04:16:28.016Z,2508
2016-07-21T04:17:48.469Z,2628
2016-07-21T04:19:10.488Z,2740
2016-07-21T04:20:32.954Z,2848
2016-07-21T04:21:56.294Z,2944
2016-07-21T04:23:19.958Z,3020
2016-07-21T04:24:45.848Z,3096
2016-07-21T04:26:09.792Z,3164
2016-07-21T04:27:34.571Z,3188
2016-07-21T04:28:59.269Z,3224
2016-07-21T04:30:21.895Z,3228
2016-07-21T04:31:45.507Z,3236
2016-07-21T04:33:13.035Z,3196
2016-07-21T04:34:34.905Z,3128
2016-07-21T04:35:59.549Z,3020
2016-07-21T04:37:22.482Z,2864
2016-07-21T04:38:43.543Z,2936
2016-07-21T04:40:11.793Z,2976
2016-07-21T04:41:38.838Z,3116
2016-07-21T04:43:05.511Z,3412
2016-07-21T04:44:34.004Z,3884
2016-07-21T04:45:57.352Z,4000
2016-07-21T04:47:20.586Z,4068
2016-07-21T04:48:43.256Z,4144
2016-07-21T04:50:06.739Z,4720
2016-07-21T04:51:32.865Z,4908
2016-07-21T04:52:56.028Z,4904
2016-07-21T04:54:20.749Z,4852
2016-07-21T04:55:44.569Z,4800
2016-07-21T04:57:08.014Z,5028
2016-07-21T04:58:31.880Z,5152
2016-07-21T04:59:53.813Z,5240
2016-07-21T05:01:15.561Z,5184
2016-07-21T05:02:38.844Z,5064
2016-07-21T05:04:02.627Z,4832
2016-07-21T05:05:27.002Z,4808
2016-07-21T05:06:53.573Z,5092
2016-07-21T05:08:29.528Z,5176
2016-07-21T05:09:53.433Z,5252
2016-07-21T05:11:18.757Z,5260
2016-07-21T05:12:42.852Z,5400
2016-07-21T05:14:06.552Z,5668
2016-07-21T05:15:30.977Z,5656
2016-07-21T05:16:54.100Z,5612
2016-07-21T05:17:47.119Z,5940
2016-07-21T05:18:29.163Z,5984
2016-07-21T05:19:29.154Z,5996
2016-07-21T05:20:29.319Z,6016
2016-07-21T05:21:29.166Z,6052
2016-07-21T05:22:29.181Z,6100
2016-07-21T05:23:29.168Z,6092
2016-07-21T05:24:29.159Z,6112
2016-07-21T05:25:29.629Z,6136
2016-07-21T05:26:29.941Z,6048
2016-07-21T05:27:29.500Z,6296
2016-07-21T05:28:29.143Z,6104
2016-07-21T05:29:29.857Z,6364
2016-07-21T05:30:29.613Z,6628
2016-07-21T05:31:29.174Z,6508
2016-07-21T05:32:29.191Z,6768
2016-07-21T05:33:29.201Z,6872
2016-07-21T05:34:29.648Z,6788
2016-07-21T05:35:29.409Z,6836
2016-07-21T05:36:29.316Z,7172
2016-07-21T05:37:29.617Z,7320
2016-07-21T05:38:29.406Z,7444
2016-07-21T05:39:29.323Z,7492
2016-07-21T05:40:29.148Z,7236
2016-07-21T05:41:29.156Z,7696
2016-07-21T05:42:29.181Z,7784
2016-07-21T05:43:29.228Z,7840
2016-07-21T05:44:29.198Z,7732
2016-07-21T05:45:29.200Z,7768
2016-07-21T05:46:29.193Z,7744
2016-07-21T05:47:29.185Z,7860
2016-07-21T05:48:29.195Z,7976
2016-07-21T05:49:29.214Z,7992
2016-07-21T05:50:29.239Z,7932
2016-07-21T05:51:29.262Z,8068
2016-07-21T05:52:29.212Z,8280
2016-07-21T05:53:29.237Z,8564
2016-07-21T05:54:29.228Z,8708
2016-07-21T05:55:29.237Z,8736
2016-07-21T05:56:29.231Z,8812
2016-07-21T05:57:29.228Z,8836
2016-07-21T05:58:29.199Z,8992
2016-07-21T05:59:29.198Z,9296
2016-07-21T06:00:29.831Z,9552
2016-07-21T06:01:29.198Z,9636
2016-07-21T06:02:29.298Z,9728
2016-07-21T06:03:29.351Z,9692
2016-07-21T06:04:29.270Z,9796
2016-07-21T06:05:29.233Z,9924
2016-07-21T06:06:29.197Z,9976
2016-07-21T06:07:29.213Z,9904
2016-07-21T06:08:29.204Z,9384
2016-07-21T06:09:29.231Z,9308
2016-07-21T06:10:29.174Z,9668
2016-07-21T06:11:29.232Z,9880
2016-07-21T06:12:29.201Z,10396
2016-07-21T06:13:29.199Z,10668
2016-07-21T06:14:29.228Z,10848
2016-07-21T06:15:29.176Z,11012
2016-07-21T06:16:29.235Z,11188
2016-07-21T06:17:29.232Z,11292
2016-07-21T06:18:29.205Z,11408
2016-07-21T06:19:29.213Z,11472
2016-07-21T06:20:29.204Z,11252
2016-07-21T06:21:29.314Z,10120
2016-07-21T06:22:29.320Z,9420
2016-07-21T06:23:52.707Z,11056
2016-07-21T06:25:03.813Z,10984
2016-07-21T06:26:08.469Z,11840
2016-07-21T06:27:07.181Z,12072
2016-07-21T06:28:36.929Z,12316
2016-07-21T06:29:54.980Z,12348
2016-07-21T06:31:14.723Z,12576
2016-07-21T06:32:26.216Z,12224
2016-07-21T06:33:30.511Z,11988
2016-07-21T06:33:55.961Z,11644
2016-07-21T06:34:55.991Z,12172
2016-07-21T06:35:55.974Z,12416
2016-07-21T06:37:34.225Z,12916
2016-07-21T06:38:36.439Z,13032
2016-07-21T06:39:43.596Z,12548
2016-07-21T06:40:45.867Z,12608
2016-07-21T06:41:39.324Z,12572
2016-07-21T06:42:37.583Z,12512
2016-07-21T06:43:16.993Z,11840
2016-07-21T06:44:53.417Z,10944
2016-07-21T06:45:16.799Z,11312
2016-07-21T06:47:04.328Z,13016
2016-07-21T06:48:29.374Z,11616
2016-07-21T06:49:53.983Z,12304
2016-07-21T06:51:12.147Z,13916
2016-07-21T06:51:50.695Z,14336
2016-07-21T06:53:03.319Z,14260
2016-07-21T06:54:10.124Z,20544
2016-07-21T06:55:13.390Z,29408
2016-07-21T06:56:10.551Z,37152
2016-07-21T06:56:44.499Z,37728
2016-07-21T06:57:44.442Z,32000
2016-07-21T06:58:44.443Z,34176
2016-07-21T06:59:44.472Z,33824
2016-07-21T07:00:44.459Z,27776
2016-07-21T07:01:44.462Z,25568
2016-07-21T07:02:44.543Z,24416
2016-07-21T07:03:44.538Z,28800
2016-07-21T07:04:44.514Z,27488
2016-07-21T07:06:19.791Z,26624
2016-07-21T07:06:44.469Z,24864
2016-07-21T07:07:44.830Z,34912
2016-07-21T07:08:44.472Z,36864
2016-07-21T07:09:44.476Z,50016
2016-07-21T07:10:44.481Z,52384
2016-07-21T07:11:44.508Z,52096
2016-07-21T07:12:44.504Z,52064
2016-07-21T07:13:44.484Z,50144
2016-07-21T07:14:44.492Z,49888
2016-07-21T07:15:44.459Z,48448
2016-07-21T07:16:44.496Z,52864
2016-07-21T07:17:44.532Z,53088
2016-07-21T07:18:44.505Z,48320
2016-07-21T07:19:44.657Z,37984
2016-07-21T07:20:44.624Z,29920
2016-07-21T07:21:44.514Z,27552
2016-07-21T07:22:44.505Z,22624
2016-07-21T07:23:44.553Z,18208
2016-07-21T07:24:44.478Z,16768
2016-07-21T07:25:44.535Z,11424
2016-07-21T07:26:44.532Z,10028
2016-07-21T07:27:44.484Z,19744
2016-07-21T07:28:44.603Z,39968
2016-07-21T07:29:44.513Z,44064
2016-07-21T07:30:44.711Z,44864
2016-07-21T07:31:44.554Z,47328
2016-07-21T07:32:44.502Z,47008
2016-07-21T07:33:44.505Z,44608
2016-07-21T07:34:44.809Z,42432
2016-07-21T07:35:44.491Z,43936
2016-07-21T07:36:44.569Z,45856
2016-07-21T07:37:44.566Z,48928
2016-07-21T07:38:44.509Z,55872
2016-07-21T07:39:44.540Z,56096
2016-07-21T07:40:44.522Z,53856
2016-07-21T07:41:44.529Z,54560
2016-07-21T07:42:44.509Z,51456
2016-07-21T07:43:44.563Z,38592
2016-07-21T07:44:44.550Z,50304
2016-07-21T07:45:44.503Z,49152
2016-07-21T07:46:44.739Z,42432
2016-07-21T07:47:44.528Z,40192
2016-07-21T07:48:44.555Z,43776
2016-07-21T07:49:44.514Z,48416
2016-07-21T07:50:44.967Z,50112
2016-07-21T07:51:44.505Z,53056
2016-07-21T07:52:44.714Z,56704
2016-07-21T07:53:44.526Z,55840
2016-07-21T07:54:44.598Z,63712
2016-07-21T07:55:44.589Z,69408
2016-07-21T07:56:44.529Z,71168
2016-07-21T07:57:44.544Z,70624
2016-07-21T07:58:45.386Z,64800
2016-07-21T07:59:44.541Z,57600
2016-07-21T08:00:44.549Z,42944
2016-07-21T08:01:44.695Z,27168
2016-07-21T08:02:44.580Z,15916
2016-07-21T08:03:44.529Z,13176
2016-07-21T08:04:44.595Z,12932
2016-07-21T08:05:44.595Z,12836
2016-07-21T08:06:44.517Z,12644
2016-07-21T08:07:45.390Z,12440
2016-07-21T08:08:44.564Z,12328
2016-07-21T08:09:44.540Z,12272
2016-07-21T08:10:44.563Z,12248
2016-07-21T08:11:44.587Z,12248
2016-07-21T08:12:44.558Z,12388
2016-07-21T08:13:44.931Z,12312
2016-07-21T08:14:44.573Z,12672
2016-07-21T08:15:44.596Z,11888
2016-07-21T08:16:44.740Z,10916
2016-07-21T08:17:44.608Z,11128
2016-07-21T08:18:44.621Z,11448
2016-07-21T08:19:44.562Z,13440
2016-07-21T08:20:44.533Z,13868
2016-07-21T08:21:44.597Z,14108
2016-07-21T08:22:45.348Z,14304
2016-07-21T08:23:44.718Z,14144
2016-07-21T08:24:44.557Z,14172
2016-07-21T08:25:44.598Z,14396
2016-07-21T08:26:44.631Z,14428
2016-07-21T08:27:44.725Z,14540
2016-07-21T08:28:44.850Z,14512
2016-07-21T08:29:44.599Z,14588
2016-07-21T08:30:44.688Z,14740
2016-07-21T08:31:45.451Z,14840
2016-07-21T08:32:44.631Z,14788
2016-07-21T08:33:44.712Z,14588
2016-07-21T08:34:45.513Z,14012
2016-07-21T08:35:44.598Z,13648
2016-07-21T08:36:44.566Z,13932
2016-07-21T08:37:44.987Z,14180
2016-07-21T08:38:44.578Z,14264
2016-07-21T08:39:44.586Z,14080
2016-07-21T08:40:44.591Z,13876
2016-07-21T08:41:44.644Z,13744
2016-07-21T08:42:44.573Z,13724
2016-07-21T08:43:44.599Z,14028
2016-07-21T08:44:44.631Z,14064
2016-07-21T08:45:44.701Z,14100
2016-07-21T08:46:44.607Z,13708
2016-07-21T08:47:44.628Z,13296
2016-07-21T08:48:44.590Z,13132
2016-07-21T08:49:44.583Z,13220
2016-07-21T08:50:44.675Z,13312
2016-07-21T08:51:44.577Z,13476
2016-07-21T08:52:44.584Z,13420
2016-07-21T08:53:44.790Z,13316
2016-07-21T08:54:45.265Z,13180
2016-07-21T08:55:44.605Z,13548
2016-07-21T08:56:44.732Z,13560
2016-07-21T08:57:44.621Z,13212
2016-07-21T08:58:44.660Z,13080
2016-07-21T08:59:45.067Z,13252
2016-07-21T09:00:44.749Z,13296
2016-07-21T09:01:44.645Z,13056
2016-07-21T09:02:44.611Z,13080
2016-07-21T09:03:44.691Z,13072
2016-07-21T09:04:44.600Z,13076
2016-07-21T09:05:44.565Z,13160
2016-07-21T09:06:44.590Z,13288
2016-07-21T09:07:44.618Z,13344
2016-07-21T09:08:44.600Z,13560
2016-07-21T09:09:44.660Z,13488
2016-07-21T09:10:44.600Z,13144
2016-07-21T09:11:44.688Z,14012
2016-07-21T09:12:44.719Z,14424
2016-07-21T09:13:44.659Z,14040
2016-07-21T09:14:44.738Z,13504
2016-07-21T09:15:44.614Z,13192
2016-07-21T09:16:44.620Z,13192
2016-07-21T09:17:44.673Z,13340
2016-07-21T09:18:44.637Z,13332
2016-07-21T09:19:44.656Z,13236
2016-07-21T09:20:44.605Z,13100
2016-07-21T09:21:44.629Z,12384
2016-07-21T09:22:44.649Z,13396
2016-07-21T09:23:44.625Z,14532
2016-07-21T09:24:44.692Z,14712
2016-07-21T09:25:44.622Z,15152
2016-07-21T09:26:44.648Z,17008
2016-07-21T09:27:44.612Z,19808
2016-07-21T09:28:44.702Z,18244
2016-07-21T09:29:44.708Z,15504
2016-07-21T09:30:44.677Z,12700
2016-07-21T09:31:44.655Z,12100
2016-07-21T09:32:44.650Z,12276
2016-07-21T09:33:44.638Z,13496
2016-07-21T09:34:44.606Z,16252
2016-07-21T09:35:44.705Z,22272
2016-07-21T09:36:44.648Z,25664
2016-07-21T09:37:44.693Z,25312
2016-07-21T09:38:44.666Z,23872
2016-07-21T09:39:44.686Z,23328
2016-07-21T09:40:45.357Z,23008
2016-07-21T09:41:44.894Z,22912
2016-07-21T09:42:44.631Z,23296
2016-07-21T09:43:44.631Z,22656
2016-07-21T09:44:44.787Z,20544
2016-07-21T09:45:44.631Z,19104
2016-07-21T09:46:44.636Z,17520
2016-07-21T09:47:44.662Z,17912
2016-07-21T09:48:44.680Z,18104
2016-07-21T09:49:44.642Z,18692
2016-07-21T09:50:44.658Z,20288
2016-07-21T09:51:44.718Z,20864
2016-07-21T09:52:44.646Z,22432
2016-07-21T09:53:44.656Z,24064
2016-07-21T09:54:44.678Z,25024
2016-07-21T09:55:44.665Z,24032
2016-07-21T09:56:44.649Z,22624
2016-07-21T09:57:44.640Z,22208
2016-07-21T09:58:44.679Z,22336
2016-07-21T09:59:44.683Z,22720
2016-07-21T10:00:44.645Z,23744
2016-07-21T10:01:44.723Z,25120
2016-07-21T10:02:44.691Z,25728
2016-07-21T10:03:44.696Z,25696
2016-07-21T10:04:44.659Z,24992
2016-07-21T10:05:44.662Z,23008
2016-07-21T10:06:44.667Z,20768
2016-07-21T10:07:44.744Z,19456
2016-07-21T10:08:44.748Z,19680
2016-07-21T10:09:44.687Z,20992
2016-07-21T10:10:44.694Z,20288
2016-07-21T10:11:44.684Z,18784
2016-07-21T10:12:44.726Z,17104
2016-07-21T10:13:44.663Z,16092
2016-07-21T10:14:44.823Z,15256
2016-07-21T10:15:44.798Z,14940
2016-07-21T10:16:44.868Z,15088
2016-07-21T10:17:44.837Z,15100
2016-07-21T10:18:44.741Z,15472
2016-07-21T10:19:44.823Z,16804
2016-07-21T10:20:45.264Z,18192
2016-07-21T10:21:44.792Z,18284
2016-07-21T10:22:44.753Z,18052
2016-07-21T10:23:44.760Z,18368
2016-07-21T10:24:44.720Z,18708
2016-07-21T10:27:31.021Z,18712
2016-07-21T10:28:59.557Z,20576
2016-07-21T10:29:13.847Z,20576
2016-07-21T10:30:14.311Z,20992
2016-07-21T10:31:13.685Z,21120
2016-07-21T10:32:13.719Z,20832
2016-07-21T10:33:13.717Z,19424
2016-07-21T10:34:13.730Z,18420
2016-07-21T10:35:13.818Z,18004
2016-07-21T10:36:13.875Z,17156
2016-07-21T10:37:13.905Z,15892
2016-07-21T10:38:13.925Z,15348
2016-07-21T10:39:14.020Z,16016
2016-07-21T10:40:13.844Z,16996
2016-07-21T10:41:13.874Z,18124
2016-07-21T10:42:13.903Z,19808
2016-07-21T10:43:13.817Z,21216
2016-07-21T10:44:13.945Z,22400
2016-07-21T10:45:14.170Z,22336
2016-07-21T10:46:13.878Z,22240
2016-07-21T10:47:14.184Z,22016
2016-07-21T10:48:13.983Z,21344
2016-07-21T10:49:13.974Z,20448
2016-07-21T10:50:13.918Z,18792
2016-07-21T10:51:13.855Z,18340
2016-07-21T10:52:13.944Z,18428
2016-07-21T10:53:13.967Z,19232
2016-07-21T10:54:13.893Z,20384
2016-07-21T10:55:13.912Z,20544
2016-07-21T10:56:13.861Z,20256
2016-07-21T10:57:13.872Z,19776
2016-07-21T10:58:13.957Z,19552
2016-07-21T10:59:13.907Z,19136
2016-07-21T11:00:13.910Z,18268
2016-07-21T11:01:13.866Z,17516
2016-07-21T11:02:14.044Z,16184
2016-07-21T11:03:14.057Z,15644
2016-07-21T11:04:13.999Z,15612
2016-07-21T11:05:48.572Z,14572
2016-07-21T11:06:14.012Z,13996
2016-07-21T11:07:13.844Z,13156
2016-07-21T11:08:13.927Z,13520
2016-07-21T11:09:13.873Z,13712
2016-07-21T11:10:14.876Z,14128
2016-07-21T11:11:13.892Z,14584
2016-07-21T11:12:13.943Z,14836
2016-07-21T11:13:13.737Z,15636
2016-07-21T11:14:13.852Z,16348
2016-07-21T11:15:13.873Z,16896
2016-07-21T11:16:13.863Z,17268
2016-07-21T11:17:13.776Z,18052
2016-07-21T11:18:13.807Z,19200
2016-07-21T11:19:13.848Z,19712
2016-07-21T11:20:13.784Z,20352
2016-07-21T11:21:13.761Z,21056
2016-07-21T11:22:13.797Z,21920
2016-07-21T11:23:13.826Z,22592
2016-07-21T11:24:13.796Z,22496
2016-07-21T11:25:13.966Z,21696
2016-07-21T11:26:13.795Z,21408
2016-07-21T11:27:13.820Z,20672
2016-07-21T11:28:13.802Z,19840
2016-07-21T11:29:13.869Z,20896
2016-07-21T11:30:13.825Z,21664
2016-07-21T11:31:13.832Z,22176
2016-07-21T11:32:13.822Z,20512
2016-07-21T11:33:14.041Z,19392
2016-07-21T11:34:13.829Z,17712
2016-07-21T11:35:13.815Z,15824
2016-07-21T11:36:14.578Z,14224
2016-07-21T11:37:13.798Z,12884
2016-07-21T11:38:13.804Z,11560
2016-07-21T11:39:13.801Z,12428
2016-07-21T11:40:13.920Z,13224
2016-07-21T11:41:13.860Z,11816
2016-07-21T11:42:13.812Z,10596
2016-07-21T11:43:13.862Z,10456
2016-07-21T11:44:13.953Z,10576
2016-07-21T11:45:13.843Z,10512
2016-07-21T11:46:13.764Z,10352
2016-07-21T11:47:13.858Z,10812
2016-07-21T11:48:13.836Z,11772
2016-07-21T11:49:13.807Z,12380
2016-07-21T11:50:13.805Z,12680
2016-07-21T11:51:13.833Z,13216
2016-07-21T11:52:13.885Z,14600
2016-07-21T11:53:13.834Z,16284
2016-07-21T11:54:13.788Z,17172
2016-07-21T11:55:13.916Z,17500
2016-07-21T11:56:13.912Z,17308
2016-07-21T11:57:13.810Z,16960
2016-07-21T11:58:13.887Z,15852
2016-07-21T11:59:13.801Z,14132
2016-07-21T12:00:13.942Z,13540
2016-07-21T12:01:13.806Z,13492
2016-07-21T12:02:13.895Z,13412
2016-07-21T12:03:13.846Z,13544
2016-07-21T12:04:13.827Z,13596
2016-07-21T12:05:13.802Z,13544
2016-07-21T12:06:13.838Z,13148
2016-07-21T12:07:13.829Z,13100
2016-07-21T12:08:13.800Z,13788
2016-07-21T12:09:13.832Z,14504
2016-07-21T12:10:13.829Z,15280
2016-07-21T12:11:13.857Z,16680
2016-07-21T12:12:13.810Z,16596
2016-07-21T12:13:13.832Z,16840
2016-07-21T12:14:13.875Z,16428
2016-07-21T12:15:13.876Z,16336
2016-07-21T12:16:13.904Z,17228
2016-07-21T12:17:13.989Z,17812
2016-07-21T12:18:14.710Z,17720
2016-07-21T12:19:14.639Z,17096
2016-07-21T12:20:14.108Z,17136
2016-07-21T12:21:14.522Z,16448
2016-07-21T12:22:13.967Z,16400
2016-07-21T12:23:13.908Z,14972
2016-07-21T12:24:13.963Z,13104
2016-07-21T12:25:14.028Z,10704
2016-07-21T12:26:14.164Z,9928
2016-07-21T12:27:13.879Z,9636
2016-07-21T12:28:13.911Z,9652
2016-07-21T12:29:13.927Z,10324
2016-07-21T12:30:14.036Z,11364
2016-07-21T12:31:14.035Z,12256
2016-07-21T12:32:14.081Z,12120
2016-07-21T12:33:13.976Z,11532
2016-07-21T12:34:14.457Z,11764
2016-07-21T12:35:13.922Z,11940
2016-07-21T12:36:13.888Z,11816
2016-07-21T12:37:13.992Z,11520
2016-07-21T12:38:13.936Z,11152
2016-07-21T12:39:14.074Z,10436
2016-07-21T12:40:13.870Z,10640
2016-07-21T12:41:13.826Z,10980
2016-07-21T12:42:13.868Z,11288
2016-07-21T12:43:13.914Z,11484
2016-07-21T12:44:13.869Z,11568
2016-07-21T12:45:14.228Z,12144
2016-07-21T12:46:13.922Z,12232
2016-07-21T12:47:13.929Z,11900
2016-07-21T12:48:13.891Z,10932
2016-07-21T12:49:14.043Z,10320
2016-07-21T12:50:13.895Z,10160
2016-07-21T12:51:13.892Z,9868
2016-07-21T12:52:14.199Z,9844
2016-07-21T12:53:13.898Z,10196
2016-07-21T12:54:14.923Z,10704
2016-07-21T12:55:14.486Z,10736
2016-07-21T12:56:13.889Z,10952
2016-07-21T12:57:13.923Z,11644
2016-07-21T12:58:13.908Z,11632
2016-07-21T12:59:13.900Z,11208
2016-07-21T13:00:13.950Z,10704
2016-07-21T13:01:13.897Z,10996
2016-07-21T13:02:13.889Z,11720
2016-07-21T13:03:13.922Z,12488
2016-07-21T13:04:13.977Z,13088
2016-07-21T13:05:13.988Z,13700
2016-07-21T13:06:14.460Z,13704
2016-07-21T13:07:14.055Z,13748
2016-07-21T13:08:13.892Z,13968
2016-07-21T13:09:13.973Z,13648
2016-07-21T13:10:13.884Z,13792
2016-07-21T13:11:13.871Z,14840
2016-07-21T13:12:13.885Z,16032
2016-07-21T13:13:13.924Z,17144
2016-07-21T13:14:13.905Z,17368
2016-07-21T13:15:13.928Z,17996
2016-07-21T13:16:13.933Z,18100
2016-07-21T13:17:14.286Z,17892
2016-07-21T13:18:13.902Z,17080
2016-07-21T13:19:13.879Z,16864
2016-07-21T13:20:13.974Z,16748
2016-07-21T13:21:13.895Z,17800
2016-07-21T13:22:13.962Z,18428
2016-07-21T13:23:13.940Z,18272
2016-07-21T13:24:13.995Z,18140
2016-07-21T13:25:13.958Z,18024
2016-07-21T13:26:13.953Z,18092
2016-07-21T13:27:13.952Z,18028
2016-07-21T13:28:13.982Z,17972
2016-07-21T13:29:13.978Z,18036
2016-07-21T13:30:13.964Z,18088
2016-07-21T13:31:13.924Z,17800
2016-07-21T13:32:13.943Z,16464
2016-07-21T13:33:13.928Z,14636
2016-07-21T13:34:13.986Z,13544
2016-07-21T13:35:13.924Z,12940
2016-07-21T13:36:13.943Z,12680
2016-07-21T13:37:13.898Z,12772
2016-07-21T13:38:13.926Z,12396
2016-07-21T13:39:14.332Z,12616
2016-07-21T13:40:13.915Z,12344
2016-07-21T13:41:13.981Z,12280
2016-07-21T13:42:13.956Z,11676
2016-07-21T13:43:13.960Z,10872
2016-07-21T13:44:13.966Z,10708
2016-07-21T13:45:14.016Z,10752
2016-07-21T13:46:13.957Z,10820
2016-07-21T13:47:13.914Z,10760
2016-07-21T13:48:13.916Z,10464
2016-07-21T13:49:13.915Z,10264
2016-07-21T13:50:14.052Z,10296
2016-07-21T13:51:14.565Z,10244
2016-07-21T13:52:13.988Z,10044
2016-07-21T13:53:13.961Z,9792
2016-07-21T13:54:13.927Z,9600
2016-07-21T13:55:13.950Z,9640
2016-07-21T13:56:14.011Z,9644
2016-07-21T13:57:13.995Z,9368
2016-07-21T13:58:13.946Z,8700
2016-07-21T13:59:13.982Z,7840
2016-07-21T14:00:13.984Z,7252
2016-07-21T14:01:13.990Z,6980
2016-07-21T14:02:14.017Z,6988
2016-07-21T14:03:14.042Z,6916
2016-07-21T14:04:13.989Z,7084
2016-07-21T14:05:13.965Z,7804
2016-07-21T14:06:14.006Z,7896
2016-07-21T14:07:13.999Z,8928
2016-07-21T14:08:14.500Z,10080
2016-07-21T14:09:13.992Z,10896
2016-07-21T14:10:13.963Z,10860
2016-07-21T14:11:13.982Z,10516
2016-07-21T14:12:14.036Z,10256
2016-07-21T14:13:13.980Z,10904
2016-07-21T14:14:13.962Z,11364
2016-07-21T14:15:13.998Z,11408
2016-07-21T14:16:14.087Z,11608
2016-07-21T14:17:13.990Z,11844
2016-07-21T14:18:14.049Z,12200
2016-07-21T14:19:13.977Z,12148
2016-07-21T14:20:14.233Z,12464
2016-07-21T14:21:13.963Z,12588
2016-07-21T14:22:13.952Z,12224
2016-07-21T14:23:14.108Z,11828
2016-07-21T14:24:13.956Z,10856
2016-07-21T14:25:14.108Z,10172
2016-07-21T14:26:14.143Z,9672
2016-07-21T14:27:14.150Z,9016
2016-07-21T14:28:14.144Z,8716
2016-07-21T14:29:15.098Z,8676
2016-07-21T14:30:15.083Z,8592
2016-07-21T14:31:14.909Z,8612
2016-07-21T14:32:14.014Z,8732
2016-07-21T14:33:14.051Z,9064
2016-07-21T14:34:14.174Z,9484
2016-07-21T14:35:14.326Z,9936
2016-07-21T14:36:13.995Z,10100
2016-07-21T14:37:14.032Z,10120
2016-07-21T14:38:14.016Z,9876
2016-07-21T14:39:13.976Z,9492
2016-07-21T14:40:14.023Z,9236
2016-07-21T14:41:14.035Z,9000
2016-07-21T14:42:14.019Z,8624
2016-07-21T14:43:13.968Z,8272
2016-07-21T14:44:14.004Z,8120
2016-07-21T14:45:14.064Z,8200
2016-07-21T14:46:13.995Z,8324
2016-07-21T14:47:15.395Z,8444
2016-07-21T14:48:14.239Z,8568
2016-07-21T14:49:14.031Z,8688
2016-07-21T14:50:13.986Z,8860
2016-07-21T14:51:14.029Z,9104
2016-07-21T14:52:14.070Z,9392
2016-07-21T14:53:14.044Z,9680